Time;durP1;ratioP1;P1;durP2;ratioP2;P2;SDS_P1;SDS_P2;PMS_P1;PMS_P2;Temp;Humidity;BMP_temperature;BMP_pressure;BME280_temperature;BME280_humidity;BME280_pressure;Samples;Min_cycle;Max_cycle;Signal;HPM_P1;HPM_P2
2023/05/17 04:30:27;;;;;;;4.30;2.55;;;10.60;67.40;;;;;;6005750;22;20352;-77
2023/05/17 04:32:53;;;;;;;6.57;2.63;;;10.70;67.30;;;;;;5008800;28;20564;-77
2023/05/17 04:35:18;;;;;;;12.13;3.28;;;10.70;67.70;;;;;;4992675;28;20030;-77
2023/05/17 04:37:44;;;;;;;11.52;2.75;;;10.70;67.70;;;;;;4991063;28;20099;-77
2023/05/17 04:40:10;;;;;;;3.15;2.13;;;10.70;67.60;;;;;;4992704;28;20142;-77
2023/05/17 04:42:35;;;;;;;5.65;2.63;;;10.60;67.90;;;;;;4992401;28;20038;-77
2023/05/17 04:45:01;;;;;;;6.95;2.63;;;10.60;68.20;;;;;;4992428;28;20038;-76
2023/05/17 04:47:27;;;;;;;6.25;2.50;;;10.60;68.10;;;;;;4990999;28;20497;-76
2023/05/17 04:49:52;;;;;;;6.53;2.60;;;10.70;67.70;;;;;;4998265;28;20037;-80
2023/05/17 04:52:18;;;;;;;6.88;2.78;;;10.70;67.60;;;;;;4994372;28;20536;-78
2023/05/17 04:54:44;;;;;;;4.47;2.20;;;10.70;67.20;;;;;;5011845;28;20588;-79
2023/05/17 04:57:10;;;;;;;5.32;2.08;;;10.80;67.20;;;;;;5011626;28;20032;-84
2023/05/17 04:59:35;;;;;;;3.60;2.13;;;10.80;67.40;;;;;;4993448;28;20161;-83
2023/05/17 05:02:01;;;;;;;4.43;2.50;;;10.80;67.30;;;;;;5000462;28;20156;-82
2023/05/17 05:04:27;;;;;;;6.55;3.15;;;10.90;67.10;;;;;;5004387;28;20033;-87
2023/05/17 05:06:52;;;;;;;3.83;2.70;;;10.90;66.50;;;;;;5004935;28;20060;-85
2023/05/17 05:09:18;;;;;;;4.65;2.60;;;10.90;66.30;;;;;;5023900;28;20097;-87
2023/05/17 05:11:46;;;;;;;6.18;3.10;;;10.90;66.00;;;;;;4999974;28;20022;-80
2023/05/17 05:14:12;;;;;;;7.63;2.85;;;10.90;66.60;;;;;;4997904;28;20065;-80
2023/05/17 05:16:37;;;;;;;6.53;2.92;;;10.90;66.70;;;;;;5015300;28;20397;-83
2023/05/17 05:19:03;;;;;;;4.10;2.20;;;10.90;66.20;;;;;;4997612;28;20038;-82
2023/05/17 05:21:29;;;;;;;4.72;2.47;;;10.90;66.20;;;;;;4998314;28;20042;-78
2023/05/17 05:23:55;;;;;;;5.90;2.60;;;10.90;66.00;;;;;;5016269;28;20042;-83
2023/05/17 05:26:20;;;;;;;5.85;3.10;;;11.00;66.10;;;;;;4990488;28;20412;-84
2023/05/17 05:28:46;;;;;;;7.82;3.17;;;11.10;66.10;;;;;;5000892;28;20042;-83
2023/05/17 05:31:12;;;;;;;4.15;2.35;;;11.10;66.60;;;;;;5017039;28;20038;-82
2023/05/17 05:33:37;;;;;;;11.27;3.03;;;11.00;66.90;;;;;;5016445;28;20057;-82
2023/05/17 05:36:03;;;;;;;6.18;2.90;;;11.10;66.60;;;;;;5019418;28;20360;-81
2023/05/17 05:38:29;;;;;;;3.22;2.58;;;11.10;67.80;;;;;;5020299;28;20040;-82
2023/05/17 05:40:55;;;;;;;5.53;3.00;;;11.20;67.20;;;;;;5000857;28;20034;-81
2023/05/17 05:43:20;;;;;;;4.72;2.42;;;11.20;67.20;;;;;;4983287;28;20034;-81
2023/05/17 05:45:46;;;;;;;5.88;3.03;;;11.20;67.10;;;;;;5002831;28;20055;-81
2023/05/17 05:48:12;;;;;;;6.85;2.90;;;11.20;67.80;;;;;;4999856;28;20518;-81
2023/05/17 05:50:40;;;;;;;7.00;2.92;;;11.30;68.10;;;;;;5000644;28;20101;-81
2023/05/17 05:53:05;;;;;;;6.97;3.15;;;11.30;67.60;;;;;;5018194;28;20030;-81
2023/05/17 05:55:31;;;;;;;6.22;3.40;;;11.30;68.80;;;;;;5011754;28;20034;-81
2023/05/17 05:57:57;;;;;;;6.40;3.05;;;11.40;67.60;;;;;;4998374;28;20038;-81
2023/05/17 06:00:22;;;;;;;4.50;2.92;;;11.40;67.50;;;;;;4998305;28;20109;-81
2023/05/17 06:02:48;;;;;;;7.20;3.10;;;11.40;67.40;;;;;;4994642;28;20030;-81
2023/05/17 06:05:14;;;;;;;6.05;3.22;;;11.50;68.20;;;;;;4998383;28;20034;-81
2023/05/17 06:07:39;;;;;;;5.82;3.47;;;11.50;68.40;;;;;;4980663;28;20041;-81
2023/05/17 06:10:06;;;;;;;5.43;3.33;;;11.50;68.00;;;;;;4998316;28;20029;-81
2023/05/17 06:12:31;;;;;;;8.02;3.60;;;11.50;68.30;;;;;;5000342;28;20492;-82
2023/05/17 06:14:57;;;;;;;7.18;3.42;;;11.60;68.40;;;;;;5017894;28;20030;-81
2023/05/17 06:17:22;;;;;;;7.00;2.97;;;11.60;68.60;;;;;;5008427;28;20030;-81
2023/05/17 06:19:48;;;;;;;11.20;4.47;;;11.70;68.80;;;;;;4998046;28;20110;-81
2023/05/17 06:22:14;;;;;;;4.25;3.20;;;11.70;69.00;;;;;;4997829;28;20084;-81
2023/05/17 06:24:40;;;;;;;5.40;3.15;;;11.80;69.20;;;;;;4997829;28;20037;-81
2023/05/17 06:27:06;;;;;;;4.22;2.75;;;11.80;70.30;;;;;;4997991;28;20038;-82
2023/05/17 06:29:32;;;;;;;7.18;3.50;;;11.80;69.40;;;;;;4997534;28;20030;-81
2023/05/17 06:31:58;;;;;;;6.75;3.22;;;11.90;70.10;;;;;;4998633;28;20054;-82
2023/05/17 06:34:24;;;;;;;6.43;3.28;;;12.00;69.90;;;;;;5013855;28;20026;-82
2023/05/17 06:36:51;;;;;;;5.55;2.80;;;12.00;70.40;;;;;;4998017;28;20038;-82
2023/05/17 06:39:16;;;;;;;5.10;3.00;;;12.20;70.40;;;;;;4997371;28;20023;-82
2023/05/17 06:41:42;;;;;;;7.57;2.70;;;12.20;70.20;;;;;;4997438;28;20433;-82
2023/05/17 06:44:08;;;;;;;6.28;3.20;;;12.20;71.80;;;;;;4997588;28;20531;-82
2023/05/17 06:46:33;;;;;;;10.07;3.53;;;12.30;71.00;;;;;;4997414;28;20085;-82
2023/05/17 06:48:59;;;;;;;5.90;3.58;;;12.40;70.90;;;;;;4997232;28;20034;-83
2023/05/17 06:51:25;;;;;;;9.20;3.33;;;12.50;70.60;;;;;;4997162;28;20089;-82
2023/05/17 06:53:50;;;;;;;7.40;3.00;;;12.50;70.50;;;;;;5002137;28;20037;-82
2023/05/17 06:56:16;;;;;;;7.40;3.15;;;12.60;70.30;;;;;;5017024;28;20069;-82
2023/05/17 06:58:42;;;;;;;3.88;2.70;;;12.80;70.90;;;;;;5001018;28;20038;-82
2023/05/17 07:01:08;;;;;;;5.40;2.95;;;12.80;70.40;;;;;;4997384;28;20030;-82
2023/05/17 07:03:34;;;;;;;5.07;3.25;;;12.90;70.90;;;;;;5010898;28;20052;-82
2023/05/17 07:06:00;;;;;;;6.50;3.42;;;13.00;70.70;;;;;;4987412;28;20041;-82
2023/05/17 07:08:26;;;;;;;5.22;3.22;;;13.10;70.30;;;;;;5016408;28;20029;-82
2023/05/17 07:10:52;;;;;;;9.20;3.72;;;13.20;70.70;;;;;;5006868;28;20037;-82
2023/05/17 07:13:17;;;;;;;6.13;3.67;;;13.30;70.10;;;;;;5020332;28;20418;-82
2023/05/17 07:15:44;;;;;;;9.88;3.13;;;13.30;69.80;;;;;;5011135;28;20017;-83
2023/05/17 07:18:09;;;;;;;7.03;3.47;;;13.60;69.60;;;;;;5015942;28;20036;-85
2023/05/17 07:20:35;;;;;;;7.32;3.50;;;14.00;68.40;;;;;;5016480;28;20112;-84
2023/05/17 07:23:01;;;;;;;9.85;3.58;;;15.20;65.90;;;;;;5001351;28;20064;-84
2023/05/17 07:25:26;;;;;;;5.25;2.75;;;16.30;63.00;;;;;;5004993;28;20499;-84
2023/05/17 07:27:52;;;;;;;8.38;3.10;;;19.20;57.50;;;;;;5014965;28;20029;-85
2023/05/17 07:30:17;;;;;;;4.72;2.55;;;22.00;50.60;;;;;;5017051;28;20037;-85
2023/05/17 07:32:43;;;;;;;7.60;2.60;;;24.20;45.20;;;;;;5016066;28;20030;-84
2023/05/17 07:35:09;;;;;;;6.32;2.40;;;25.80;42.10;;;;;;5015454;28;20041;-85
2023/05/17 07:37:34;;;;;;;7.30;2.53;;;27.10;38.50;;;;;;4994203;28;20031;-84
2023/05/17 07:40:00;;;;;;;8.25;3.38;;;28.10;37.10;;;;;;4996513;28;20543;-84
2023/05/17 07:42:26;;;;;;;7.72;2.55;;;28.80;35.20;;;;;;4995929;28;20891;-83
2023/05/17 07:44:51;;;;;;;4.78;2.13;;;29.60;34.20;;;;;;4995155;28;20031;-79
2023/05/17 07:47:17;;;;;;;8.07;2.50;;;30.20;33.40;;;;;;4996505;28;20062;-79
2023/05/17 07:49:43;;;;;;;4.82;2.33;;;30.80;32.60;;;;;;4999104;28;20026;-83
2023/05/17 07:52:08;;;;;;;6.07;2.33;;;31.40;31.90;;;;;;5006299;28;20021;-84
2023/05/17 07:54:34;;;;;;;5.47;2.10;;;31.80;31.00;;;;;;5014829;28;20093;-84
2023/05/17 07:57:00;;;;;;;6.18;2.80;;;32.20;30.20;;;;;;4999928;28;20037;-84
2023/05/17 07:59:25;;;;;;;5.78;2.08;;;32.50;29.00;;;;;;5012690;28;20536;-84
2023/05/17 08:01:52;;;;;;;7.85;2.30;;;32.80;29.00;;;;;;4997784;28;20058;-84
2023/05/17 08:04:18;;;;;;;7.13;2.63;;;33.30;28.50;;;;;;5014605;28;20029;-84
2023/05/17 08:06:47;;;;;;;6.35;2.40;;;33.70;27.60;;;;;;5013539;28;20048;-84
2023/05/17 08:09:14;;;;;;;;;;;34.10;27.30;;;;;;5000989;28;20072;-84
2023/05/17 08:11:44;;;;;;;5.03;2.10;;;34.30;26.20;;;;;;5014342;28;19924;-85
2023/05/17 08:14:14;;;;;;;6.55;2.22;;;34.70;25.90;;;;;;4999762;28;20056;-85
2023/05/17 08:16:41;;;;;;;6.82;2.58;;;34.80;26.00;;;;;;4996720;28;20033;-84
2023/05/17 08:19:06;;;;;;;4.95;2.47;;;34.90;25.80;;;;;;5015323;28;20022;-84
2023/05/17 08:21:32;;;;;;;7.30;2.80;;;35.20;26.00;;;;;;5015401;28;20570;-84
2023/05/17 08:23:58;;;;;;;6.90;2.30;;;35.30;25.40;;;;;;5012575;28;20033;-84
2023/05/17 08:26:23;;;;;;;7.18;2.50;;;35.50;24.60;;;;;;5001813;28;20480;-85
2023/05/17 08:28:49;;;;;;;5.88;2.65;;;35.70;25.10;;;;;;5015313;28;20022;-84
2023/05/17 08:31:14;;;;;;;7.25;2.30;;;35.70;24.10;;;;;;4999068;28;20046;-84
2023/05/17 08:33:41;;;;;;;4.07;1.95;;;35.50;25.00;;;;;;5015117;28;20081;-85
2023/05/17 08:36:07;;;;;;;6.43;2.20;;;35.40;25.40;;;;;;4997906;28;20045;-85
2023/05/17 08:38:34;;;;;;;5.53;2.67;;;35.30;24.80;;;;;;5015282;28;20141;-85
2023/05/17 08:41:00;;;;;;;6.20;2.83;;;35.30;24.60;;;;;;5013760;28;20061;-85
2023/05/17 08:43:27;;;;;;;5.57;2.65;;;35.10;24.50;;;;;;4997522;28;20025;-85
2023/05/17 08:45:56;;;;;;;7.35;2.70;;;35.00;24.60;;;;;;5012832;28;20051;-85
2023/05/17 08:48:21;;;;;;;;;;;35.00;24.70;;;;;;5001226;28;20109;-86
2023/05/17 08:50:49;;;;;;;7.47;3.08;;;34.90;23.90;;;;;;4996766;28;19971;-86
2023/05/17 08:53:16;;;;;;;7.05;2.78;;;34.80;24.40;;;;;;5015727;28;20030;-84
2023/05/17 08:55:48;;;;;;;5.35;3.10;;;34.70;24.10;;;;;;5016183;28;20105;-85
2023/05/17 08:58:18;;;;;;;5.75;2.90;;;34.80;24.70;;;;;;5017678;28;20426;-85
2023/05/17 09:00:45;;;;;;;8.23;3.50;;;35.00;24.80;;;;;;5001555;28;20033;-84
2023/05/17 09:03:16;;;;;;;6.75;3.45;;;35.00;24.10;;;;;;5003926;28;20022;-84
2023/05/17 09:05:42;;;;;;;6.57;3.05;;;35.20;23.80;;;;;;5017016;28;20543;-84
2023/05/17 09:08:12;;;;;;;5.57;3.10;;;33.90;24.50;;;;;;5003549;28;20060;-84
2023/05/17 09:10:41;;;;;;;7.35;3.60;;;34.30;25.20;;;;;;5017110;28;20018;-84
2023/05/17 09:13:10;;;;;;;6.22;3.63;;;34.10;25.50;;;;;;5008058;28;20025;-84
2023/05/17 09:15:36;;;;;;;;;;;33.30;25.50;;;;;;5003721;28;20065;-84
2023/05/17 09:18:02;;;;;;;9.55;3.80;;;33.30;26.20;;;;;;5016094;28;19905;-83
2023/05/17 09:20:35;;;;;;;8.82;3.22;;;33.30;25.80;;;;;;5016329;28;20552;-84
2023/05/17 09:23:03;;;;;;;9.00;3.35;;;33.90;25.40;;;;;;5022123;28;20049;-84
2023/05/17 09:25:30;;;;;;;8.15;4.25;;;34.00;25.60;;;;;;5002493;28;20069;-84
2023/05/17 09:28:03;;;;;;;6.72;4.53;;;33.20;25.80;;;;;;5000869;28;20022;-83
2023/05/17 09:30:30;;;;;;;8.75;4.43;;;33.80;25.50;;;;;;5017847;28;20093;-84
2023/05/17 09:32:56;;;;;;;9.73;3.90;;;34.30;24.70;;;;;;5005134;28;20117;-84
2023/05/17 09:35:29;;;;;;;9.63;4.28;;;34.70;24.80;;;;;;5000396;28;20473;-84
2023/05/17 09:38:04;;;;;;;10.05;3.95;;;34.90;23.90;;;;;;4998472;28;20033;-84
2023/05/17 09:40:29;;;;;;;7.65;3.97;;;34.60;24.00;;;;;;5016251;28;20034;-85
2023/05/17 09:42:56;;;;;;;8.52;4.40;;;34.90;24.10;;;;;;5002404;28;21446;-84
2023/05/17 09:45:23;;;;;;;9.20;4.07;;;34.20;24.00;;;;;;5017266;28;20133;-84
2023/05/17 09:47:49;;;;;;;7.78;4.18;;;33.70;23.80;;;;;;5000188;28;20026;-84
2023/05/17 09:50:19;;;;;;;8.50;3.63;;;34.00;23.60;;;;;;5001514;28;20033;-84
2023/05/17 09:52:45;;;;;;;8.25;3.80;;;34.30;24.20;;;;;;5015908;28;20018;-84
2023/05/17 09:55:11;;;;;;;4.95;2.83;;;34.50;23.60;;;;;;5000159;28;20030;-84
2023/05/17 09:57:38;;;;;;;5.32;3.45;;;35.00;23.50;;;;;;5016662;28;20091;-84
2023/05/17 10:00:11;;;;;;;7.53;3.95;;;35.30;23.10;;;;;;5002318;28;20025;-84
2023/05/17 10:02:39;;;;;;;6.63;3.65;;;35.20;23.40;;;;;;5000839;28;20034;-85
2023/05/17 10:05:09;;;;;;;5.32;3.50;;;35.30;23.00;;;;;;5014231;28;20026;-84
2023/05/17 10:07:37;;;;;;;7.05;3.80;;;35.10;22.50;;;;;;5001614;28;20029;-85
2023/05/17 10:10:04;;;;;;;6.53;3.78;;;35.00;22.00;;;;;;5003413;28;20026;-85
2023/05/17 10:12:34;;;;;;;5.93;3.75;;;34.90;22.40;;;;;;5000483;28;20040;-85
2023/05/17 10:15:01;;;;;;;7.45;4.15;;;34.70;21.90;;;;;;5017223;28;20121;-85
2023/05/17 10:17:28;;;;;;;7.88;4.28;;;34.60;23.20;;;;;;5000106;28;20064;-85
2023/05/17 10:19:55;;;;;;;6.50;4.32;;;34.40;22.70;;;;;;4999810;28;20069;-84
2023/05/17 10:22:21;;;;;;;5.43;3.53;;;34.20;22.30;;;;;;4998020;28;20136;-82
2023/05/17 10:24:48;;;;;;;5.38;3.75;;;34.00;22.40;;;;;;4990632;28;20109;-89
2023/05/17 10:27:15;;;;;;;7.55;4.45;;;33.60;22.20;;;;;;4984321;28;20026;-80
2023/05/17 10:29:42;;;;;;;7.20;4.00;;;33.10;22.50;;;;;;5017311;28;20105;-89
2023/05/17 10:32:08;;;;;;;5.15;3.65;;;32.60;23.20;;;;;;5015061;28;20165;-86
2023/05/17 10:34:38;;;;;;;8.48;3.95;;;31.80;23.80;;;;;;5024354;28;20109;-88
2023/05/17 10:37:04;;;;;;;8.13;4.32;;;31.00;24.40;;;;;;5010176;28;20022;-80
2023/05/17 10:39:33;;;;;;;7.38;4.10;;;29.80;24.80;;;;;;5023822;28;20053;-83
2023/05/17 10:42:02;;;;;;;6.28;3.60;;;29.00;25.50;;;;;;5007357;28;20075;-88
2023/05/17 10:44:31;;;;;;;6.43;3.67;;;28.40;26.30;;;;;;5001031;28;20164;-85
2023/05/17 10:46:58;;;;;;;8.00;3.90;;;28.00;27.60;;;;;;5010072;28;20385;-90
2023/05/17 10:49:31;;;;;;;10.20;3.95;;;27.70;27.80;;;;;;5012188;28;20029;-89
2023/05/17 10:52:15;;;;;;;7.28;3.75;;;27.40;28.60;;;;;;5027913;28;20022;-88
2023/05/17 10:54:43;;;;;;;6.07;2.92;;;27.10;29.10;;;;;;5007418;28;20026;-87
2023/05/17 10:57:19;;;;;;;8.02;3.47;;;27.00;28.70;;;;;;5009758;28;20022;-90
2023/05/17 10:59:59;;;;;;;5.22;3.10;;;26.80;29.30;;;;;;5005811;28;20056;-87
2023/05/17 11:02:27;;;;;;;5.55;2.72;;;26.40;29.10;;;;;;5025035;28;20527;-88
2023/05/17 11:04:54;;;;;;;6.30;2.95;;;26.00;29.60;;;;;;5005217;28;20443;-89
2023/05/17 11:07:23;;;;;;;3.10;1.73;;;25.90;29.70;;;;;;5003161;28;20026;-87
2023/05/17 11:09:55;;;;;;;3.35;1.75;;;25.70;29.70;;;;;;5007140;28;20053;-86
2023/05/17 11:12:52;;;;;;;7.28;2.40;;;25.40;30.30;;;;;;5006593;28;20029;-84
2023/05/17 11:15:23;;;;;;;6.10;2.67;;;25.40;30.40;;;;;;5001755;28;20592;-88
2023/05/17 11:17:52;;;;;;;3.47;1.83;;;25.30;30.40;;;;;;5005057;28;20388;-87
2023/05/17 11:20:24;;;;;;;4.28;2.10;;;25.20;30.20;;;;;;5007035;28;20061;-86
2023/05/17 11:23:00;;;;;;;5.43;2.58;;;25.10;30.00;;;;;;4998998;28;20037;-91
2023/05/17 11:25:36;;;;;;;4.35;2.25;;;25.00;31.60;;;;;;4993233;28;20037;-88
2023/05/17 11:28:20;;;;;;;4.75;2.17;;;25.00;31.90;;;;;;4988521;28;20531;-85
2023/05/17 11:30:52;;;;;;;3.90;2.00;;;24.50;31.10;;;;;;5012281;28;20046;-85
2023/05/17 11:33:20;;;;;;;6.18;2.33;;;24.50;31.20;;;;;;4999925;28;20037;-81
2023/05/17 11:35:46;;;;;;;7.80;1.55;;;24.30;32.70;;;;;;5015066;28;20033;-85
2023/05/17 11:38:15;;;;;;;5.07;2.58;;;24.50;33.40;;;;;;5012720;28;20053;-78
2023/05/17 11:40:41;;;;;;;3.47;1.77;;;24.70;32.80;;;;;;5005417;28;20033;-80
2023/05/17 11:43:22;;;;;;;5.47;2.58;;;24.80;32.20;;;;;;5018012;28;20083;-81
2023/05/17 11:45:50;;;;;;;5.03;2.63;;;24.30;32.10;;;;;;5013732;28;20523;-81
2023/05/17 11:48:17;;;;;;;5.70;2.30;;;24.30;32.50;;;;;;4995051;28;20029;-81
2023/05/17 11:50:44;;;;;;;3.35;1.73;;;24.30;32.80;;;;;;5003540;28;20018;-81
2023/05/17 11:53:10;;;;;;;3.42;1.83;;;24.30;32.30;;;;;;4995895;28;20076;-81
2023/05/17 11:55:46;;;;;;;5.63;2.42;;;24.30;32.30;;;;;;5013660;28;20065;-81
2023/05/17 11:58:17;;;;;;;5.38;2.28;;;24.50;32.90;;;;;;5011263;28;20026;-81
2023/05/17 12:00:44;;;;;;;5.57;1.95;;;24.30;32.50;;;;;;4997373;28;20022;-80
2023/05/17 12:03:20;;;;;;;4.78;2.17;;;24.30;32.20;;;;;;5014595;28;20018;-81
2023/05/17 12:05:47;;;;;;;3.25;1.80;;;24.40;31.50;;;;;;5012859;28;20032;-81
2023/05/17 12:08:18;;;;;;;4.20;2.10;;;24.30;31.10;;;;;;4999537;28;20040;-81
2023/05/17 12:10:55;;;;;;;5.00;2.13;;;24.10;31.40;;;;;;5015429;28;20101;-81
2023/05/17 12:13:21;;;;;;;3.45;2.20;;;24.00;32.50;;;;;;5015267;28;20038;-81
2023/05/17 12:15:54;;;;;;;4.15;2.05;;;23.70;31.10;;;;;;4997628;28;20040;-80
2023/05/17 12:18:20;;;;;;;4.00;1.83;;;23.60;33.10;;;;;;5002146;28;20116;-80
2023/05/17 12:20:59;;;;;;;4.03;1.88;;;23.70;33.00;;;;;;5011764;28;20117;-80
2023/05/17 12:23:29;;;;;;;5.22;1.75;;;23.60;32.30;;;;;;5001377;28;20053;-79
2023/05/17 12:26:13;;;;;;;5.03;2.03;;;23.70;33.40;;;;;;5013196;28;20086;-79
2023/05/17 12:28:43;;;;;;;4.22;2.03;;;23.70;33.10;;;;;;5019132;28;20030;-79
2023/05/17 12:31:17;;;;;;;4.15;1.85;;;23.80;33.40;;;;;;5018971;28;20439;-79
2023/05/17 12:33:44;;;;;;;3.70;2.22;;;24.00;33.10;;;;;;5016505;28;20025;-79
2023/05/17 12:36:11;;;;;;;3.30;1.77;;;24.10;33.10;;;;;;5017805;28;20053;-79
2023/05/17 12:38:39;;;;;;;3.78;1.80;;;24.20;32.70;;;;;;5004417;28;20032;-77
2023/05/17 12:41:07;;;;;;;3.88;1.85;;;24.30;32.70;;;;;;5016649;28;20025;-78
2023/05/17 12:43:34;;;;;;;2.90;1.65;;;24.40;32.30;;;;;;5017602;28;20080;-78
2023/05/17 12:46:08;;;;;;;3.42;1.88;;;24.60;32.10;;;;;;5002651;28;20080;-79
2023/05/17 12:48:39;;;;;;;2.63;1.70;;;24.40;31.70;;;;;;5017380;28;20072;-79
2023/05/17 12:51:07;;;;;;;5.60;1.92;;;24.10;31.90;;;;;;5016492;28;20029;-79
2023/05/17 12:53:40;;;;;;;4.80;1.45;;;23.90;32.50;;;;;;5017562;28;20044;-79
2023/05/17 12:56:07;;;;;;;4.22;2.03;;;23.90;32.90;;;;;;5022642;28;20025;-78
2023/05/17 12:58:33;;;;;;;5.15;1.60;;;23.80;31.90;;;;;;5018370;28;20064;-78
2023/05/17 13:01:01;;;;;;;3.65;1.73;;;23.80;31.70;;;;;;4999521;28;20023;-79
2023/05/17 13:03:27;;;;;;;3.22;1.90;;;24.00;31.60;;;;;;5018925;28;20034;-79
2023/05/17 13:06:04;;;;;;;4.07;2.30;;;24.00;31.30;;;;;;5018082;28;20018;-78
2023/05/17 13:08:31;;;;;;;3.08;1.65;;;24.10;31.30;;;;;;5003036;28;20029;-79
2023/05/17 13:11:13;;;;;;;5.13;2.10;;;23.90;31.50;;;;;;5018495;28;20030;-79
2023/05/17 13:13:40;;;;;;;4.13;1.80;;;23.60;31.70;;;;;;5004144;28;20030;-78
2023/05/17 13:16:06;;;;;;;3.75;1.80;;;23.50;30.60;;;;;;5000781;28;20083;-78
2023/05/17 13:18:54;;;;;;;3.05;1.73;;;23.60;31.90;;;;;;5018192;28;20105;-78
2023/05/17 13:21:20;;;;;;;5.45;1.73;;;23.80;32.30;;;;;;5016953;28;20021;-78
2023/05/17 13:23:47;;;;;;;5.60;2.03;;;23.60;31.80;;;;;;5003932;28;20034;-79
2023/05/17 13:26:17;;;;;;;4.60;2.00;;;23.80;30.90;;;;;;5018084;28;20026;-79
2023/05/17 13:28:42;;;;;;;4.15;1.77;;;23.80;31.70;;;;;;5018118;28;20026;-79
2023/05/17 13:31:08;;;;;;;4.65;1.92;;;23.90;32.30;;;;;;4999760;28;20056;-79
2023/05/17 13:33:34;;;;;;;2.28;1.52;;;23.90;31.70;;;;;;5014842;28;20416;-79
2023/05/17 13:36:00;;;;;;;5.07;2.30;;;23.80;32.60;;;;;;5005546;28;20113;-79
2023/05/17 13:38:25;;;;;;;3.70;2.20;;;23.80;32.30;;;;;;5002682;28;20404;-79
2023/05/17 13:40:51;;;;;;;4.75;1.95;;;23.70;31.30;;;;;;5015388;28;20041;-79
2023/05/17 13:43:17;;;;;;;4.30;1.77;;;23.80;31.10;;;;;;5006012;28;20097;-82
2023/05/17 13:45:43;;;;;;;2.70;1.63;;;23.80;31.60;;;;;;5017862;28;20436;-78
2023/05/17 13:48:08;;;;;;;5.15;2.10;;;24.00;32.80;;;;;;5017209;28;20053;-79
2023/05/17 13:50:34;;;;;;;3.92;1.75;;;24.20;29.30;;;;;;5015610;28;20073;-79
2023/05/17 13:53:01;;;;;;;3.72;1.85;;;23.90;31.10;;;;;;5017374;28;20476;-79
2023/05/17 13:55:27;;;;;;;3.63;1.75;;;23.70;32.20;;;;;;5014871;28;20076;-79
2023/05/17 13:57:53;;;;;;;4.65;1.75;;;23.60;31.90;;;;;;5017784;28;20030;-79
2023/05/17 14:00:19;;;;;;;3.90;1.90;;;23.50;31.90;;;;;;5015006;28;20464;-78
2023/05/17 14:02:45;;;;;;;2.38;1.63;;;23.40;31.80;;;;;;5017527;28;20026;-79
2023/05/17 14:05:11;;;;;;;4.28;2.00;;;23.50;32.30;;;;;;4999516;28;20028;-79
2023/05/17 14:07:41;;;;;;;4.53;1.45;;;23.80;32.10;;;;;;4999881;28;20047;-79
2023/05/17 14:10:08;;;;;;;4.07;2.13;;;23.80;32.80;;;;;;5000823;28;20018;-79
2023/05/17 14:12:34;;;;;;;5.10;2.03;;;23.70;31.20;;;;;;5016883;28;20018;-79
2023/05/17 14:15:00;;;;;;;5.70;2.35;;;23.50;31.90;;;;;;5015023;28;20152;-78
2023/05/17 14:17:26;;;;;;;3.53;1.85;;;23.30;31.80;;;;;;4999561;28;20120;-82
2023/05/17 14:19:51;;;;;;;3.78;1.67;;;23.30;31.90;;;;;;5015152;28;20026;-79
2023/05/17 14:22:17;;;;;;;4.13;1.83;;;23.70;32.70;;;;;;5015063;28;20110;-79
2023/05/17 14:24:42;;;;;;;3.60;1.83;;;23.80;32.10;;;;;;4996839;28;20488;-79
2023/05/17 14:27:08;;;;;;;3.55;1.70;;;23.80;32.10;;;;;;4998189;28;20033;-79
2023/05/17 14:29:34;;;;;;;4.03;1.90;;;23.80;31.90;;;;;;5015454;28;20025;-78
2023/05/17 14:31:59;;;;;;;5.25;1.80;;;23.60;32.40;;;;;;5015448;28;20052;-79
2023/05/17 14:34:25;;;;;;;3.72;1.90;;;23.40;32.40;;;;;;5013537;28;20080;-78
2023/05/17 14:36:52;;;;;;;4.72;1.55;;;23.30;33.40;;;;;;5015548;28;20096;-79
2023/05/17 14:39:17;;;;;;;3.85;1.83;;;23.20;33.00;;;;;;5015574;28;20575;-82
2023/05/17 14:41:43;;;;;;;4.78;1.63;;;23.30;33.20;;;;;;5014667;28;20117;-80
2023/05/17 14:44:09;;;;;;;5.07;2.08;;;23.50;33.50;;;;;;5016403;28;20505;-77
2023/05/17 14:46:34;;;;;;;3.25;2.00;;;23.70;33.00;;;;;;5015565;28;20623;-80
2023/05/17 14:49:00;;;;;;;2.97;1.58;;;23.70;33.30;;;;;;5013772;28;20053;-80
2023/05/17 14:51:26;;;;;;;3.85;1.92;;;23.60;33.10;;;;;;5017362;28;20057;-77
2023/05/17 14:53:53;;;;;;;3.85;1.77;;;23.40;32.30;;;;;;5022098;28;20028;-78
2023/05/17 14:56:18;;;;;;;4.63;1.75;;;23.30;32.20;;;;;;5023859;28;20022;-78
2023/05/17 14:58:44;;;;;;;3.65;1.67;;;23.20;32.90;;;;;;5004485;28;20438;-79
2023/05/17 15:01:10;;;;;;;4.20;1.80;;;23.10;33.70;;;;;;5006784;28;20044;-78
2023/05/17 15:03:36;;;;;;;4.75;2.13;;;23.00;33.00;;;;;;5020420;28;20041;-77
2023/05/17 15:06:02;;;;;;;4.55;1.60;;;23.10;33.30;;;;;;5022273;28;20087;-77
2023/05/17 15:08:28;;;;;;;4.03;1.83;;;23.10;32.90;;;;;;5006569;28;20025;-78
2023/05/17 15:10:54;;;;;;;5.68;1.65;;;23.10;33.60;;;;;;5019438;28;20022;-78
2023/05/17 15:13:20;;;;;;;4.15;2.15;;;23.10;32.90;;;;;;5018277;28;20035;-78
2023/05/17 15:15:48;;;;;;;4.28;2.00;;;23.10;32.80;;;;;;5018879;28;20026;-79
2023/05/17 15:18:14;;;;;;;3.63;1.90;;;23.20;33.30;;;;;;5021682;28;20492;-78
2023/05/17 15:20:40;;;;;;;3.67;1.90;;;23.10;33.20;;;;;;5007501;28;20030;-79
2023/05/17 15:23:06;;;;;;;3.65;1.65;;;23.00;33.50;;;;;;5023417;28;20060;-78
2023/05/17 15:25:32;;;;;;;4.45;2.00;;;22.90;34.00;;;;;;5004046;28;20137;-78
2023/05/17 15:27:57;;;;;;;5.82;1.85;;;22.80;33.60;;;;;;5023471;28;20028;-79
2023/05/17 15:30:26;;;;;;;3.90;2.13;;;22.90;33.90;;;;;;5005950;28;20049;-79
2023/05/17 15:32:57;;;;;;;3.97;1.70;;;22.90;34.00;;;;;;5017306;28;20061;-78
2023/05/17 15:35:23;;;;;;;3.70;1.70;;;22.90;33.80;;;;;;5018156;28;20037;-79
2023/05/17 15:37:51;;;;;;;3.22;1.60;;;22.90;33.30;;;;;;5002716;28;20117;-79
2023/05/17 15:40:17;;;;;;;2.67;1.30;;;22.90;33.60;;;;;;4996715;28;20025;-79
2023/05/17 15:42:43;;;;;;;4.07;1.73;;;23.00;34.00;;;;;;5011086;28;20044;-79
2023/05/17 15:45:09;;;;;;;3.92;1.90;;;22.90;34.60;;;;;;5011896;28;20560;-79
2023/05/17 15:47:35;;;;;;;4.55;1.98;;;22.90;34.60;;;;;;4998597;28;20076;-79
2023/05/17 15:50:01;;;;;;;4.40;1.60;;;23.00;35.20;;;;;;4997875;28;20477;-79
2023/05/17 15:52:27;;;;;;;5.05;2.50;;;23.10;34.40;;;;;;4999927;28;20061;-79
2023/05/17 15:54:52;;;;;;;6.15;1.63;;;23.20;34.50;;;;;;5014721;28;20499;-78
2023/05/17 15:57:19;;;;;;;4.80;1.65;;;23.10;34.50;;;;;;5012393;28;20109;-77
2023/05/17 15:59:45;;;;;;;3.70;2.00;;;22.90;35.20;;;;;;5005464;28;20034;-78
2023/05/17 16:02:11;;;;;;;5.53;2.30;;;22.80;34.80;;;;;;5008587;28;20037;-78
2023/05/17 16:04:36;;;;;;;5.22;1.95;;;22.80;35.30;;;;;;4995707;28;20022;-78
2023/05/17 16:07:02;;;;;;;5.72;2.30;;;22.70;35.70;;;;;;4994988;28;20099;-78
2023/05/17 16:09:28;;;;;;;6.10;2.83;;;22.80;37.30;;;;;;4992491;28;20026;-78
2023/05/17 16:11:53;;;;;;;4.38;1.88;;;22.80;37.90;;;;;;4996185;28;20094;-78
2023/05/17 16:14:19;;;;;;;4.03;2.03;;;22.70;38.70;;;;;;4995909;28;20432;-79
2023/05/17 16:16:45;;;;;;;4.78;2.40;;;22.60;39.20;;;;;;4990911;28;20033;-79
2023/05/17 16:19:11;;;;;;;5.10;2.38;;;22.50;39.30;;;;;;4997997;28;20037;-78
2023/05/17 16:21:37;;;;;;;5.93;2.60;;;22.40;40.00;;;;;;5013472;28;20030;-78
2023/05/17 16:24:05;;;;;;;6.30;2.60;;;22.40;39.90;;;;;;4998297;28;20026;-78
2023/05/17 16:26:34;;;;;;;8.50;2.63;;;22.50;40.00;;;;;;5011035;28;20026;-77
2023/05/17 16:28:59;;;;;;;4.88;2.22;;;22.60;40.60;;;;;;5013323;28;20048;-78
2023/05/17 16:31:25;;;;;;;10.45;2.65;;;22.80;40.20;;;;;;4993603;28;20512;-77
2023/05/17 16:33:51;;;;;;;4.85;2.33;;;22.90;40.30;;;;;;4993425;28;20089;-77
2023/05/17 16:36:17;;;;;;;6.72;2.38;;;22.90;39.50;;;;;;5013396;28;20021;-77
2023/05/17 16:38:43;;;;;;;5.18;2.55;;;22.90;40.10;;;;;;5013448;28;20053;-77
2023/05/17 16:41:09;;;;;;;5.47;2.67;;;22.80;40.10;;;;;;5012939;28;20034;-77
2023/05/17 16:43:34;;;;;;;5.55;2.10;;;22.70;41.10;;;;;;4997221;28;20022;-76
2023/05/17 16:46:00;;;;;;;5.88;2.47;;;22.60;41.30;;;;;;5014520;28;20030;-76
2023/05/17 16:48:26;;;;;;;7.28;2.47;;;22.50;41.30;;;;;;5012126;28;20030;-76
2023/05/17 16:50:51;;;;;;;8.27;2.70;;;22.40;41.70;;;;;;5004481;28;20048;-77
2023/05/17 16:53:17;;;;;;;5.60;2.65;;;22.30;42.00;;;;;;4997828;28;20018;-77
2023/05/17 16:55:43;;;;;;;5.55;1.90;;;22.30;42.10;;;;;;5010118;28;20030;-77
2023/05/17 16:58:08;;;;;;;6.32;3.13;;;22.20;42.00;;;;;;4996614;28;20058;-76
2023/05/17 17:00:34;;;;;;;9.52;2.50;;;22.10;42.50;;;;;;4997028;28;20030;-77
2023/05/17 17:03:00;;;;;;;8.82;2.63;;;22.00;42.30;;;;;;5011608;28;20037;-78
2023/05/17 17:05:27;;;;;;;4.93;2.30;;;22.00;42.10;;;;;;5007725;28;20496;-77
2023/05/17 17:07:52;;;;;;;7.30;2.40;;;22.00;42.10;;;;;;5010204;28;20022;-76
2023/05/17 17:10:18;;;;;;;4.93;1.90;;;21.80;42.60;;;;;;4998558;28;20041;-77
2023/05/17 17:12:45;;;;;;;8.30;3.33;;;21.70;42.80;;;;;;4997699;28;20022;-78
2023/05/17 17:15:11;;;;;;;8.80;3.40;;;21.60;43.00;;;;;;5001144;28;20556;-78
2023/05/17 17:17:37;;;;;;;7.78;2.50;;;21.50;43.50;;;;;;5016448;28;20030;-78